LTAD/ANK METAR and TAF weather

Enter ICAO airport designator
Station Type Date Time Source
LTAD METAR 2020/04/06 13:50 UTC NOAA

LTAD 061350Z 05020G30KT 010V070 9999 SCT040 SCT100 13/04 Q1019 NOSIG RMK RWY29 03013KT 350V070


Station Type Date Time Source
LTAD Decoded METAR 2020/04/06 13:50 UTC NOAA

Ankara / Etimesgut, Turkey (LTAD) 39-57N 032-41E 806M
Apr 06, 2020 - 09:50 AM EDT / 2020.04.06 1350 UTC
Wind: from the NE (050 degrees) at 23 MPH (20 KT) gusting to 35 MPH (30 KT) (direction variable):0
Visibility: greater than 7 mile(s):0
Sky conditions: partly cloudy
Temperature: 55 F (13 C)
Dew Point: 39 F (4 C)
Relative Humidity: 54%
Pressure (altimeter): 30.09 in. Hg (1019 hPa)
ob: LTAD 061350Z 05020G30KT 010V070 9999 SCT040 SCT100 13/04 Q1019 NOSIG RMK RWY29 03013KT 350V070
cycle: 14

Station Type Date Time Source
LTAD TAF UTC NOAA

Error!

Example: see airport list